Time;durP1;ratioP1;P1;durP2;ratioP2;P2;SDS_P1;SDS_P2;PMS_P1;PMS_P2;Temp;Humidity;BMP_temperature;BMP_pressure;BME280_temperature;BME280_humidity;BME280_pressure;Samples;Min_cycle;Max_cycle;Signal;HPM_P1;HPM_P2
2023/05/23 00:01:49;;;;;;;10.00;7.22;;;;;;;11.78;95.68;96105.91;5114043;28;20056;-67
2023/05/23 00:04:18;;;;;;;11.25;6.75;;;;;;;11.81;95.77;96107.50;5113857;28;20055;-65
2023/05/23 00:06:46;;;;;;;8.85;6.93;;;;;;;11.85;95.48;96107.28;5113805;28;20049;-66
2023/05/23 00:09:16;;;;;;;12.23;7.30;;;;;;;11.89;95.46;96110.59;5113796;28;20485;-67
2023/05/23 00:11:44;;;;;;;11.68;6.20;;;;;;;11.95;95.71;96094.56;5113855;28;20048;-63
2023/05/23 00:14:12;;;;;;;11.68;6.70;;;;;;;11.91;95.28;96100.88;5113767;28;20043;-64
2023/05/23 00:16:41;;;;;;;9.27;7.07;;;;;;;11.94;95.46;96108.59;5113629;28;20048;-64
2023/05/23 00:19:10;;;;;;;10.65;6.38;;;;;;;11.96;95.64;96101.50;5113581;28;20050;-65
2023/05/23 00:21:38;;;;;;;13.30;6.20;;;;;;;12.00;95.72;96105.66;5113679;28;20428;-65
2023/05/23 00:24:05;;;;;;;12.50;6.15;;;;;;;12.00;95.66;96102.19;5113761;28;20082;-63
2023/05/23 00:26:33;;;;;;;12.18;6.65;;;;;;;12.05;95.26;96100.19;5113672;28;20139;-67
2023/05/23 00:29:00;;;;;;;10.45;6.25;;;;;;;12.01;94.89;96093.38;5113636;28;20043;-67
2023/05/23 00:31:27;;;;;;;9.63;6.05;;;;;;;12.00;94.91;96092.56;5113484;28;20070;-63
2023/05/23 00:33:54;;;;;;;8.15;6.05;;;;;;;12.05;94.44;96083.59;5113480;28;20039;-67
2023/05/23 00:36:23;;;;;;;11.50;6.28;;;;;;;12.05;94.34;96092.34;5113566;28;20040;-66
2023/05/23 00:38:52;;;;;;;9.07;6.72;;;;;;;12.06;94.14;96086.16;5113253;28;20054;-66
2023/05/23 00:41:19;;;;;;;8.63;6.28;;;;;;;12.08;93.86;96097.44;5113395;28;20040;-66
2023/05/23 00:43:46;;;;;;;13.23;6.32;;;;;;;12.06;93.14;96096.63;5113286;28;20485;-63
2023/05/23 00:46:14;;;;;;;11.15;5.88;;;;;;;12.06;92.83;96099.25;5113477;28;20044;-68
2023/05/23 00:48:41;;;;;;;6.38;5.78;;;;;;;12.07;92.18;96097.53;5113526;28;20082;-66
2023/05/23 00:51:08;;;;;;;9.38;5.65;;;;;;;12.05;92.26;96102.81;5117340;28;20086;-64
2023/05/23 00:53:35;;;;;;;8.90;5.57;;;;;;;12.03;92.08;96101.19;5117501;28;20079;-67
2023/05/23 00:56:04;;;;;;;8.40;5.18;;;;;;;11.98;91.79;96093.56;5117397;28;20439;-64
2023/05/23 00:58:32;;;;;;;11.35;5.97;;;;;;;12.00;91.31;96096.94;5117305;28;20412;-67
2023/05/23 01:00:59;;;;;;;13.15;5.82;;;;;;;11.87;91.45;96100.19;5117302;28;20051;-67
2023/05/23 01:03:28;;;;;;;12.57;6.50;;;;;;;11.90;91.39;96088.72;5117271;28;20052;-67
2023/05/23 01:05:56;;;;;;;11.38;6.28;;;;;;;11.92;91.73;96084.22;5117372;28;20043;-69
2023/05/23 01:08:23;;;;;;;6.03;5.43;;;;;;;11.94;91.28;96098.09;5117240;28;20079;-64
2023/05/23 01:10:51;;;;;;;12.52;5.78;;;;;;;11.92;91.28;96093.88;5116942;28;20108;-65
2023/05/23 01:13:29;;;;;;;9.00;5.90;;;;;;;11.84;91.62;96096.88;5117082;28;20048;-65
2023/05/23 01:16:03;;;;;;;7.22;6.07;;;;;;;11.72;92.02;96091.34;5117156;28;20101;-68
2023/05/23 01:18:37;;;;;;;8.40;5.95;;;;;;;11.74;91.99;96086.03;5116972;28;20040;-67
2023/05/23 01:21:07;;;;;;;13.50;5.47;;;;;;;11.79;91.90;96088.38;5116823;28;20123;-65
2023/05/23 01:24:01;;;;;;;9.13;5.30;;;;;;;11.75;91.69;96082.47;5116964;28;20079;-65
2023/05/23 01:26:35;;;;;;;14.30;5.63;;;;;;;11.78;91.86;96081.47;5116859;28;20043;-65
2023/05/23 01:29:09;;;;;;;8.20;5.55;;;;;;;11.77;91.88;96085.84;5116840;28;20046;-64
2023/05/23 01:31:40;;;;;;;5.88;5.05;;;;;;;11.70;91.96;96087.06;5116757;28;20146;-68
2023/05/23 01:34:08;;;;;;;11.70;5.93;;;;;;;11.67;92.20;96079.38;5116857;28;20083;-62
2023/05/23 01:36:40;;;;;;;10.52;6.07;;;;;;;11.63;92.16;96078.69;5116680;28;20090;-64
2023/05/23 01:39:07;;;;;;;10.50;5.40;;;;;;;11.62;92.21;96080.44;5116452;28;20054;-64
2023/05/23 01:41:34;;;;;;;14.55;6.00;;;;;;;11.63;92.24;96078.69;5116711;28;20055;-67
2023/05/23 01:44:03;;;;;;;12.98;5.68;;;;;;;11.56;92.31;96077.31;5116893;28;20039;-63
2023/05/23 01:46:32;;;;;;;8.48;5.65;;;;;;;11.52;92.22;96078.34;5116498;28;20124;-64
2023/05/23 01:49:01;;;;;;;13.98;5.70;;;;;;;11.52;92.18;96078.34;5116482;28;20055;-68
2023/05/23 01:51:29;;;;;;;8.82;6.10;;;;;;;11.49;92.10;96076.75;5116440;28;20500;-62
2023/05/23 01:53:57;;;;;;;9.65;5.15;;;;;;;11.49;91.90;96080.22;5116337;28;20055;-62
2023/05/23 01:56:26;;;;;;;14.25;5.93;;;;;;;11.45;91.80;96075.19;5116255;28;20048;-65
2023/05/23 01:58:53;;;;;;;9.32;5.78;;;;;;;11.47;91.47;96078.59;5116096;28;20050;-64
2023/05/23 02:01:21;;;;;;;11.35;5.72;;;;;;;11.46;90.77;96082.13;5115782;28;20047;-63
2023/05/23 02:03:49;;;;;;;9.40;5.10;;;;;;;11.43;90.87;96072.66;5116183;28;20048;-62
2023/05/23 02:06:16;;;;;;;9.88;5.28;;;;;;;11.35;91.17;96070.41;5116211;28;20070;-65
2023/05/23 02:08:43;;;;;;;16.05;5.72;;;;;;;11.31;91.05;96076.72;5115944;28;20047;-61
2023/05/23 02:11:10;;;;;;;15.45;6.10;;;;;;;11.28;90.98;96076.88;5115899;28;20052;-68
2023/05/23 02:13:37;;;;;;;10.68;6.03;;;;;;;11.22;91.56;96077.16;5115919;28;20083;-65
2023/05/23 02:16:04;;;;;;;7.78;5.63;;;;;;;11.16;92.34;96082.69;5115832;28;20079;-62
2023/05/23 02:18:32;;;;;;;8.35;6.60;;;;;;;11.17;92.73;96077.38;5115834;28;20493;-65
2023/05/23 02:20:59;;;;;;;8.98;7.53;;;;;;;11.14;94.54;96076.69;5115823;28;20075;-62
2023/05/23 02:23:26;;;;;;;13.27;8.35;;;;;;;11.16;96.60;96082.69;5115978;28;20071;-62
2023/05/23 02:25:53;;;;;;;13.70;8.10;;;;;;;11.20;97.37;96079.84;5115619;28;20039;-66
2023/05/23 02:28:20;;;;;;;12.30;8.30;;;;;;;11.25;97.82;96082.25;5115577;28;20044;-67
2023/05/23 02:30:47;;;;;;;17.02;9.20;;;;;;;11.33;98.07;96076.66;5115803;28;20124;-66
2023/05/23 02:33:15;;;;;;;9.23;7.05;;;;;;;11.41;98.09;96071.03;5115694;28;20079;-63
2023/05/23 02:35:43;;;;;;;11.10;7.82;;;;;;;11.44;97.94;96071.72;5115568;28;20100;-67
2023/05/23 02:38:11;;;;;;;10.40;7.15;;;;;;;11.44;97.61;96076.13;5115292;28;20105;-66
2023/05/23 02:40:38;;;;;;;11.38;7.18;;;;;;;11.46;97.45;96072.50;5115413;28;20071;-64
2023/05/23 02:43:05;;;;;;;16.15;7.20;;;;;;;11.45;96.82;96073.44;5115444;28;20051;-66
2023/05/23 02:45:32;;;;;;;9.13;7.10;;;;;;;11.46;96.34;96083.00;5115346;28;20096;-67
2023/05/23 02:47:59;;;;;;;8.90;6.80;;;;;;;11.48;96.05;96075.06;5115160;28;20101;-67
2023/05/23 02:50:26;;;;;;;13.88;6.90;;;;;;;11.45;95.58;96081.28;5115077;28;20043;-66
2023/05/23 02:52:54;;;;;;;8.40;7.25;;;;;;;11.46;96.01;96076.88;5115186;28;20075;-67
2023/05/23 02:55:21;;;;;;;8.63;7.18;;;;;;;11.52;96.17;96080.97;5115038;28;20504;-66
2023/05/23 02:57:48;;;;;;;8.70;6.68;;;;;;;11.51;95.85;96080.16;5115046;28;20039;-63
2023/05/23 03:00:16;;;;;;;8.85;6.90;;;;;;;11.50;95.89;96081.06;5114963;28;20078;-63
2023/05/23 03:02:43;;;;;;;14.40;7.65;;;;;;;11.50;96.52;96076.66;5114849;28;20047;-64
2023/05/23 03:05:10;;;;;;;11.32;6.78;;;;;;;11.49;96.03;96077.59;5114847;28;20090;-68
2023/05/23 03:07:37;;;;;;;12.23;6.70;;;;;;;11.47;95.83;96076.81;5114782;28;20044;-62
2023/05/23 03:10:07;;;;;;;9.60;6.72;;;;;;;11.49;96.03;96079.34;5114987;28;20120;-63
2023/05/23 03:12:35;;;;;;;9.00;7.70;;;;;;;11.45;96.26;96078.69;5113917;28;20104;-64
2023/05/23 03:15:02;;;;;;;10.60;7.50;;;;;;;11.47;96.54;96076.00;5114636;28;20047;-66
2023/05/23 03:17:30;;;;;;;10.55;7.63;;;;;;;11.58;96.67;96086.78;5114601;28;20130;-65
2023/05/23 03:19:57;;;;;;;12.73;8.13;;;;;;;11.71;96.82;96078.31;5114718;28;20055;-63
2023/05/23 03:22:24;;;;;;;8.63;7.35;;;;;;;11.78;96.71;96081.47;5114641;28;20044;-65
2023/05/23 03:24:52;;;;;;;12.02;7.75;;;;;;;11.88;96.69;96083.56;5114429;28;20082;-66
2023/05/23 03:27:20;;;;;;;11.90;7.95;;;;;;;11.93;96.01;96088.56;5114469;28;20048;-70
2023/05/23 03:29:48;;;;;;;9.75;6.97;;;;;;;12.01;96.41;96085.53;5114606;28;20187;-66
2023/05/23 03:32:15;;;;;;;13.32;6.93;;;;;;;12.05;96.23;96087.09;5114382;28;20052;-66
2023/05/23 03:34:42;;;;;;;11.65;8.32;;;;;;;12.09;96.58;96090.41;5114372;28;20047;-63
2023/05/23 03:37:10;;;;;;;11.73;7.05;;;;;;;12.26;97.14;96086.94;5114361;28;20066;-66
2023/05/23 03:39:37;;;;;;;13.20;6.45;;;;;;;12.38;97.14;96085.44;5114039;28;20052;-65
2023/05/23 03:42:04;;;;;;;8.43;6.55;;;;;;;12.33;96.96;96085.69;5114289;28;20048;-64
2023/05/23 03:44:33;;;;;;;14.25;6.40;;;;;;;12.43;95.56;96090.44;5114202;28;20386;-68
2023/05/23 03:47:00;;;;;;;8.80;6.75;;;;;;;12.43;96.22;96090.44;5114139;28;20092;-64
2023/05/23 03:49:28;;;;;;;16.67;7.03;;;;;;;12.49;96.07;96087.47;5114024;28;20050;-66
2023/05/23 03:51:55;;;;;;;10.10;6.60;;;;;;;12.49;95.96;96088.34;5113954;28;20074;-69
2023/05/23 03:54:23;;;;;;;10.70;6.85;;;;;;;12.50;95.18;96091.81;5113985;28;20122;-69
2023/05/23 03:56:50;;;;;;;9.68;6.38;;;;;;;12.51;94.58;96091.75;5113946;28;20044;-64
2023/05/23 03:59:18;;;;;;;13.35;6.55;;;;;;;12.61;94.18;96092.09;5113835;28;20096;-63
2023/05/23 04:01:46;;;;;;;11.10;5.72;;;;;;;12.66;93.24;96091.84;5113951;28;20100;-66
2023/05/23 04:04:15;;;;;;;8.73;6.40;;;;;;;12.66;92.74;96093.59;5113982;28;20093;-65
2023/05/23 04:06:43;;;;;;;10.60;6.45;;;;;;;12.80;92.33;96090.25;5113840;28;20048;-64
2023/05/23 04:09:10;;;;;;;6.95;5.65;;;;;;;12.83;92.46;96096.19;5113816;28;20039;-63
2023/05/23 04:11:38;;;;;;;7.22;5.75;;;;;;;12.89;92.05;96092.38;5113639;28;20052;-70
2023/05/23 04:14:06;;;;;;;11.18;5.40;;;;;;;12.92;91.66;96097.47;5113684;28;20123;-62
2023/05/23 04:16:34;;;;;;;13.75;6.50;;;;;;;12.98;90.64;96097.09;5113625;28;20048;-63
2023/05/23 04:19:04;;;;;;;6.38;5.78;;;;;;;13.10;88.85;96094.75;5113681;28;20105;-67
2023/05/23 04:21:31;;;;;;;8.15;5.57;;;;;;;13.19;88.10;96096.03;5113676;28;20151;-66
2023/05/23 04:23:59;;;;;;;16.80;5.90;;;;;;;13.27;88.64;96102.53;5113440;28;20413;-63
2023/05/23 04:26:26;;;;;;;6.88;5.53;;;;;;;13.30;88.76;96112.03;5113663;28;20073;-63
2023/05/23 04:28:54;;;;;;;8.43;6.00;;;;;;;13.39;88.53;96102.78;5113432;28;20408;-66
2023/05/23 04:31:21;;;;;;;9.02;6.07;;;;;;;13.39;88.23;96108.88;5113488;28;20143;-67
2023/05/23 04:33:49;;;;;;;12.15;5.90;;;;;;;13.45;88.63;96115.56;5113624;28;20051;-67
2023/05/23 04:36:18;;;;;;;10.25;5.97;;;;;;;13.50;88.52;96120.59;5113522;28;20455;-63
2023/05/23 04:38:45;;;;;;;10.55;5.57;;;;;;;13.57;88.47;96123.75;5113175;28;20058;-65
2023/05/23 04:41:15;;;;;;;6.88;5.68;;;;;;;13.62;88.43;96125.16;5113301;28;20130;-65
2023/05/23 04:43:43;;;;;;;7.80;5.28;;;;;;;13.72;88.84;96130.72;5113373;28;20116;-64
2023/05/23 04:46:10;;;;;;;6.47;5.57;;;;;;;13.80;88.99;96134.69;5113469;28;20054;-64
2023/05/23 04:48:37;;;;;;;6.50;5.25;;;;;;;13.83;89.44;96139.78;5113269;28;20044;-65
2023/05/23 04:51:08;;;;;;;8.45;6.15;;;;;;;13.88;89.20;96145.63;5113217;28;20052;-65
2023/05/23 04:53:39;;;;;;;13.07;5.82;;;;;;;13.92;88.96;96141.03;5113303;28;20056;-65
2023/05/23 04:56:08;;;;;;;13.80;5.70;;;;;;;13.97;89.13;96142.44;5113313;28;20047;-67
2023/05/23 04:58:36;;;;;;;14.60;5.68;;;;;;;14.01;89.17;96140.50;5113281;28;20083;-66
2023/05/23 05:01:05;;;;;;;17.92;5.25;;;;;;;14.03;89.03;96144.72;5113298;28;20052;-66
2023/05/23 05:03:32;;;;;;;15.13;5.63;;;;;;;14.07;89.56;96148.03;5113328;28;20039;-65
2023/05/23 05:06:00;;;;;;;7.22;5.20;;;;;;;14.11;89.91;96141.66;5113142;28;20485;-64
2023/05/23 05:08:28;;;;;;;11.13;5.32;;;;;;;14.14;89.94;96151.13;5095062;28;20082;-64
2023/05/23 05:10:57;;;;;;;8.93;5.63;;;;;;;14.20;89.83;96150.78;5113091;28;20173;-63
2023/05/23 05:13:25;;;;;;;6.90;5.60;;;;;;;14.26;90.00;96154.84;5095033;28;20462;-68
2023/05/23 05:15:52;;;;;;;6.65;5.53;;;;;;;14.31;89.95;96157.19;5113172;28;20051;-64
2023/05/23 05:18:20;;;;;;;12.43;6.03;;;;;;;14.27;89.59;96160.00;5113066;28;20135;-64
2023/05/23 05:20:47;;;;;;;12.48;5.72;;;;;;;14.36;87.52;96161.25;5113162;28;20055;-65
2023/05/23 05:23:15;;;;;;;8.95;5.03;;;;;;;14.46;90.71;96158.94;5113394;28;20105;-64
2023/05/23 05:25:42;;;;;;;9.00;5.60;;;;;;;14.51;91.25;96161.28;5113062;28;20101;-66
2023/05/23 05:28:11;;;;;;;6.20;5.30;;;;;;;14.49;90.34;96169.28;5113085;28;20047;-63
2023/05/23 05:30:38;;;;;;;13.13;5.72;;;;;;;14.60;91.09;96171.25;5113062;28;20415;-64
2023/05/23 05:33:06;;;;;;;6.68;5.80;;;;;;;14.76;91.14;96171.19;5112988;28;20044;-62
2023/05/23 05:35:34;;;;;;;8.45;5.78;;;;;;;14.97;92.11;96177.88;5114413;28;20054;-67
2023/05/23 05:38:03;;;;;;;7.28;5.57;;;;;;;15.15;91.89;96168.81;5116484;28;20059;-64
2023/05/23 05:40:30;;;;;;;10.00;5.22;;;;;;;15.38;92.08;96168.34;5116525;28;20083;-62
2023/05/23 05:42:57;;;;;;;6.45;5.15;;;;;;;15.55;91.63;96180.44;5116527;28;20113;-64
2023/05/23 05:45:26;;;;;;;7.18;4.82;;;;;;;15.70;89.32;96180.38;5116605;28;20090;-67
2023/05/23 05:47:53;;;;;;;8.07;4.65;;;;;;;15.86;86.89;96174.97;5116656;28;20044;-66
2023/05/23 05:50:21;;;;;;;5.72;4.47;;;;;;;16.04;85.24;96176.44;5116409;28;20051;-65
2023/05/23 05:52:48;;;;;;;8.43;4.85;;;;;;;16.28;85.86;96188.06;5116286;28;20138;-66
2023/05/23 05:55:15;;;;;;;6.80;5.45;;;;;;;16.53;85.55;96189.09;5116293;28;20048;-69
2023/05/23 05:57:43;;;;;;;7.50;5.03;;;;;;;16.79;85.37;96187.28;5116309;28;20047;-64
2023/05/23 06:00:12;;;;;;;5.90;4.55;;;;;;;17.19;82.18;96193.44;5116119;28;20073;-65
2023/05/23 06:02:41;;;;;;;6.07;4.70;;;;;;;17.45;77.52;96188.06;5116081;28;20043;-68
2023/05/23 06:05:11;;;;;;;10.00;4.80;;;;;;;17.77;75.88;96189.34;5116173;28;20566;-66
2023/05/23 06:07:38;;;;;;;6.10;4.10;;;;;;;18.04;77.66;96190.94;5116098;28;20056;-66
2023/05/23 06:10:07;;;;;;;8.73;5.05;;;;;;;18.11;74.90;96186.91;5116031;28;20039;-67
2023/05/23 06:12:35;;;;;;;9.48;5.57;;;;;;;18.07;77.04;96190.72;5115811;28;20055;-66
2023/05/23 06:15:02;;;;;;;7.30;5.28;;;;;;;18.02;75.57;96188.41;5115878;28;20050;-63
2023/05/23 06:17:29;;;;;;;5.20;4.47;;;;;;;18.03;70.60;96186.59;5116129;28;20123;-64
2023/05/23 06:19:58;;;;;;;9.57;5.07;;;;;;;18.15;72.35;96192.81;5115933;28;20051;-65
2023/05/23 06:22:25;;;;;;;5.75;4.20;;;;;;;18.38;70.20;96185.78;5115783;28;20059;-63
2023/05/23 06:24:52;;;;;;;4.68;4.10;;;;;;;18.74;66.27;96187.53;5115762;28;20048;-63
2023/05/23 06:27:19;;;;;;;4.70;4.15;;;;;;;19.06;63.46;96181.56;5115638;28;20122;-63
2023/05/23 06:29:46;;;;;;;8.75;4.13;;;;;;;19.54;61.22;96180.47;5115554;28;20424;-64
2023/05/23 06:32:14;;;;;;;4.70;3.72;;;;;;;19.99;58.50;96181.34;5115561;28;20062;-64
2023/05/23 06:34:41;;;;;;;4.80;3.65;;;;;;;20.34;55.63;96182.03;5115563;28;20101;-63
2023/05/23 06:37:10;;;;;;;8.95;4.15;;;;;;;20.27;57.39;96179.06;5115508;28;20096;-62
2023/05/23 06:39:37;;;;;;;5.03;4.35;;;;;;;20.40;56.11;96181.53;5115212;28;20101;-66
2023/05/23 06:42:05;;;;;;;5.72;3.90;;;;;;;20.44;56.01;96166.19;5115312;28;20481;-63
2023/05/23 06:44:32;;;;;;;5.97;3.47;;;;;;;20.68;57.07;96173.88;5115395;28;20465;-66
2023/05/23 06:46:59;;;;;;;3.63;3.30;;;;;;;21.17;54.29;96183.13;5115516;28;20108;-67
2023/05/23 06:49:26;;;;;;;6.13;3.65;;;;;;;21.48;52.31;96171.59;5115286;28;20048;-66
2023/05/23 06:51:53;;;;;;;9.70;3.85;;;;;;;21.22;53.29;96180.88;5115144;28;20086;-63
2023/05/23 06:54:21;;;;;;;11.20;4.28;;;;;;;21.18;53.56;96187.44;5115134;28;20050;-64
2023/05/23 06:56:48;;;;;;;5.50;3.47;;;;;;;21.38;52.73;96174.22;5115120;28;20517;-62
2023/05/23 06:59:16;;;;;;;8.95;4.10;;;;;;;21.85;53.64;96176.31;5115218;28;20078;-67
2023/05/23 07:01:43;;;;;;;5.93;3.70;;;;;;;22.06;51.02;96175.34;5114982;28;20051;-66
2023/05/23 07:04:11;;;;;;;8.00;3.72;;;;;;;22.33;50.23;96165.81;5114901;28;20139;-65
2023/05/23 07:06:39;;;;;;;4.57;3.55;;;;;;;22.21;49.44;96171.31;5114814;28;20044;-67
2023/05/23 07:09:06;;;;;;;5.97;3.60;;;;;;;22.17;51.11;96167.25;5114803;28;20072;-66
2023/05/23 07:11:35;;;;;;;5.38;3.50;;;;;;;22.28;53.09;96163.63;5114724;28;20055;-67
2023/05/23 07:14:03;;;;;;;4.30;3.85;;;;;;;22.37;49.37;96166.41;5114726;28;20044;-67
2023/05/23 07:16:30;;;;;;;7.40;3.53;;;;;;;22.05;50.70;96165.69;5114636;28;20481;-62
2023/05/23 07:18:57;;;;;;;8.07;4.07;;;;;;;22.20;50.98;96163.44;5114701;28;20047;-67
2023/05/23 07:21:24;;;;;;;4.32;3.67;;;;;;;22.70;46.65;96159.78;5114547;28;20075;-66
2023/05/23 07:23:51;;;;;;;3.55;3.00;;;;;;;22.74;48.81;96159.47;5114697;28;20047;-65
2023/05/23 07:26:18;;;;;;;5.85;3.42;;;;;;;23.03;50.00;96150.56;5114542;28;20054;-64
2023/05/23 07:28:47;;;;;;;5.72;3.35;;;;;;;23.42;47.63;96152.25;5114345;28;20047;-65
2023/05/23 07:31:14;;;;;;;3.83;3.15;;;;;;;23.57;45.55;96145.41;5114499;28;20493;-64
2023/05/23 07:33:41;;;;;;;5.38;3.17;;;;;;;23.34;44.42;96148.47;5114342;28;20096;-67
2023/05/23 07:36:09;;;;;;;4.78;3.42;;;;;;;22.91;44.58;96148.06;5114257;28;20397;-62
2023/05/23 07:38:36;;;;;;;5.07;3.28;;;;;;;23.20;49.58;96151.59;5114097;28;20082;-65
2023/05/23 07:41:03;;;;;;;4.18;3.10;;;;;;;23.54;47.05;96142.22;5114320;28;20039;-66
2023/05/23 07:43:30;;;;;;;6.00;3.30;;;;;;;23.56;44.50;96158.91;5114188;28;20048;-67
2023/05/23 07:45:59;;;;;;;13.18;3.25;;;;;;;23.58;44.25;96160.44;5114147;28;20126;-64
2023/05/23 07:48:27;;;;;;;4.53;3.15;;;;;;;23.70;43.46;96163.75;5114151;28;20051;-66
2023/05/23 07:50:54;;;;;;;7.43;3.55;;;;;;;23.63;44.46;96159.97;5114162;28;20122;-64
2023/05/23 07:53:21;;;;;;;3.45;3.15;;;;;;;23.60;44.21;96160.31;5113907;28;20079;-65
2023/05/23 07:55:49;;;;;;;6.00;3.10;;;;;;;23.45;43.35;96167.97;5114044;28;20131;-61
2023/05/23 07:58:16;;;;;;;5.88;3.00;;;;;;;23.19;45.35;96156.13;5113634;28;20039;-64
2023/05/23 08:00:45;;;;;;;4.45;2.65;;;;;;;23.30;42.96;96159.59;5113929;28;20044;-64
2023/05/23 08:03:14;;;;;;;5.20;3.03;;;;;;;22.95;44.94;96160.13;5113874;28;20073;-63
2023/05/23 08:05:41;;;;;;;3.45;3.15;;;;;;;22.46;44.06;96149.56;5113814;28;20047;-65
2023/05/23 08:08:08;;;;;;;4.57;3.22;;;;;;;22.62;45.63;96150.81;5113921;28;20054;-64
2023/05/23 08:10:35;;;;;;;3.28;2.85;;;;;;;22.81;46.22;96150.78;5113757;28;20048;-65
2023/05/23 08:13:05;;;;;;;6.05;3.17;;;;;;;22.63;44.96;96156.00;5113569;28;20081;-66
2023/05/23 08:15:33;;;;;;;4.30;2.97;;;;;;;22.47;44.00;96145.91;5113807;28;20393;-64
2023/05/23 08:18:00;;;;;;;6.85;3.22;;;;;;;22.31;44.06;96157.97;5113671;28;20105;-65
2023/05/23 08:20:30;;;;;;;4.97;3.10;;;;;;;22.00;45.21;96142.16;5113640;28;20048;-66
2023/05/23 08:22:59;;;;;;;6.13;3.10;;;;;;;21.75;46.07;96144.38;5113620;28;20117;-67
2023/05/23 08:25:29;;;;;;;4.65;3.25;;;;;;;21.74;48.11;96147.16;5113485;28;20043;-65
2023/05/23 08:27:57;;;;;;;3.20;2.55;;;;;;;22.10;48.02;96136.84;5113436;28;20043;-64
2023/05/23 08:30:24;;;;;;;5.38;2.60;;;;;;;22.56;48.49;96142.41;5113442;28;20048;-64
2023/05/23 08:32:52;;;;;;;4.05;3.10;;;;;;;22.54;46.06;96140.84;5113396;28;20055;-66
2023/05/23 08:35:20;;;;;;;6.00;2.72;;;;;;;22.37;47.19;96124.63;5113633;28;20086;-62
2023/05/23 08:37:49;;;;;;;5.97;3.28;;;;;;;22.13;45.40;96143.69;5112971;28;20499;-64
2023/05/23 08:40:20;;;;;;;4.32;2.63;;;;;;;22.24;46.22;96143.53;5113369;28;20047;-67
2023/05/23 08:42:48;;;;;;;4.57;3.33;;;;;;;22.42;45.72;96146.34;5113417;28;20409;-64
2023/05/23 08:45:16;;;;;;;6.75;2.85;;;;;;;22.96;46.89;96140.47;5113394;28;20071;-64
2023/05/23 08:47:44;;;;;;;2.90;2.58;;;;;;;23.37;44.30;96144.69;5113489;28;20492;-63
2023/05/23 08:50:13;;;;;;;5.93;2.70;;;;;;;23.28;44.80;96138.38;5113419;28;20043;-64
2023/05/23 08:52:44;;;;;;;3.25;2.92;;;;;;;23.28;46.76;96134.88;5113330;28;20052;-66
2023/05/23 08:55:13;;;;;;;3.42;2.60;;;;;;;23.46;47.73;96135.78;5113320;28;20048;-68
2023/05/23 08:57:42;;;;;;;3.78;2.58;;;;;;;23.84;43.29;96132.19;5113273;28;20047;-63
2023/05/23 09:00:13;;;;;;;5.55;2.70;;;;;;;23.97;42.63;96132.66;5113275;28;20101;-66
2023/05/23 09:02:42;;;;;;;7.55;2.58;;;;;;;23.95;43.11;96136.44;5113297;28;20087;-65
2023/05/23 09:05:10;;;;;;;3.55;2.95;;;;;;;24.07;42.09;96126.38;5113286;28;20048;-68
2023/05/23 09:07:37;;;;;;;7.78;2.67;;;;;;;23.42;41.92;96137.06;5113135;28;20051;-61
2023/05/23 09:10:06;;;;;;;4.15;2.35;;;;;;;23.22;43.69;96141.63;5113886;28;20040;-63
2023/05/23 09:12:36;;;;;;;4.30;2.80;;;;;;;23.33;42.66;96144.09;5116938;28;20086;-63
2023/05/23 09:15:05;;;;;;;3.33;2.60;;;;;;;23.13;41.87;96134.50;5117108;28;20047;-61
2023/05/23 09:17:32;;;;;;;3.33;2.45;;;;;;;23.07;42.25;96139.47;5117036;28;20086;-65
2023/05/23 09:20:01;;;;;;;4.68;2.90;;;;;;;23.28;42.82;96133.03;5116961;28;20048;-64
2023/05/23 09:22:28;;;;;;;9.50;2.90;;;;;;;23.25;42.44;96125.34;5116981;28;20062;-63
2023/05/23 09:24:57;;;;;;;3.40;2.20;;;;;;;22.73;44.06;96145.34;5116894;28;20126;-63
2023/05/23 09:27:24;;;;;;;7.10;2.92;;;;;;;22.70;46.24;96140.28;5116910;28;20056;-65
2023/05/23 09:29:53;;;;;;;4.60;2.63;;;;;;;22.63;44.72;96150.66;5116812;28;20104;-66
2023/05/23 09:32:21;;;;;;;3.83;2.75;;;;;;;22.58;45.64;96143.09;5116792;28;20056;-64
2023/05/23 09:34:58;;;;;;;4.85;2.95;;;;;;;22.39;44.72;96140.47;5116867;28;20051;-65
2023/05/23 09:37:38;;;;;;;5.82;2.80;;;;;;;22.05;44.61;96137.25;5116735;28;20096;-64
2023/05/23 09:40:08;;;;;;;6.63;2.70;;;;;;;22.05;47.55;96150.56;5116610;28;20043;-65
2023/05/23 09:42:36;;;;;;;4.80;2.17;;;;;;;22.09;43.80;96141.31;5116615;28;20554;-65
2023/05/23 09:45:06;;;;;;;5.22;2.90;;;;;;;22.25;45.96;96147.06;5116584;28;20047;-61
2023/05/23 09:47:33;;;;;;;6.43;2.70;;;;;;;22.53;44.94;96142.69;5116645;28;20093;-65
2023/05/23 09:50:00;;;;;;;4.05;2.50;;;;;;;22.39;44.13;96137.81;5116427;28;20047;-63
2023/05/23 09:52:27;;;;;;;10.48;2.88;;;;;;;22.34;45.27;96143.56;5116377;28;20481;-62
2023/05/23 09:54:55;;;;;;;5.70;2.80;;;;;;;22.28;45.05;96138.78;5116342;28;20071;-62
2023/05/23 09:57:23;;;;;;;4.40;2.80;;;;;;;22.32;45.48;96133.03;5116400;28;20044;-62
2023/05/23 09:59:53;;;;;;;3.17;2.67;;;;;;;22.41;44.69;96131.34;5116233;28;20052;-63
2023/05/23 10:02:52;;;;;;;5.38;2.55;;;;;;;22.46;44.96;96144.22;5116371;28;20051;-63
2023/05/23 10:05:31;;;;;;;3.25;2.95;;;;;;;22.44;44.75;96141.72;5116265;28;20490;-61
2023/05/23 10:08:01;;;;;;;3.75;2.60;;;;;;;22.62;45.24;96133.00;5116222;28;20044;-64
2023/05/23 10:10:32;;;;;;;4.22;2.90;;;;;;;22.72;47.18;96138.31;5116041;28;20096;-66
2023/05/23 10:13:02;;;;;;;10.95;3.65;;;;;;;23.03;44.74;96139.91;5115859;28;20058;-64
2023/05/23 10:15:35;;;;;;;4.75;3.10;;;;;;;22.76;44.19;96133.53;5116081;28;20090;-64
2023/05/23 10:18:08;;;;;;;4.47;2.40;;;;;;;22.71;44.77;96152.63;5115928;28;20047;-62
2023/05/23 10:20:36;;;;;;;5.28;2.90;;;;;;;22.43;44.38;96139.19;5115497;28;20044;-63
2023/05/23 10:23:05;;;;;;;4.28;2.47;;;;;;;22.04;45.83;96134.72;5115745;28;20520;-66
2023/05/23 10:25:34;;;;;;;4.63;2.63;;;;;;;21.49;49.36;96134.22;5115764;28;20090;-63
2023/05/23 10:28:02;;;;;;;4.28;3.05;;;;;;;21.22;49.15;96135.69;5115665;28;20564;-63
2023/05/23 10:30:29;;;;;;;4.18;2.80;;;;;;;21.14;49.14;96139.03;5115750;28;20050;-62
2023/05/23 10:32:57;;;;;;;8.45;3.20;;;;;;;21.38;48.22;96132.53;5115462;28;20061;-63
2023/05/23 10:35:38;;;;;;;6.22;2.92;;;;;;;21.65;49.42;96136.38;5115611;28;20047;-67
2023/05/23 10:38:32;;;;;;;5.35;3.33;;;;;;;22.03;48.37;96123.22;5115314;28;20422;-60
2023/05/23 10:41:06;;;;;;;4.00;2.53;;;;;;;22.13;47.88;96128.56;5115288;28;20079;-62
2023/05/23 10:43:44;;;;;;;5.80;2.90;;;;;;;22.16;46.73;96109.66;5115363;28;20131;-66
2023/05/23 10:46:13;;;;;;;7.20;2.63;;;;;;;22.37;46.96;96113.97;5115340;28;20051;-64
2023/05/23 10:48:42;;;;;;;5.30;3.03;;;;;;;22.20;47.77;96116.38;5115531;28;20404;-65
2023/05/23 10:51:13;;;;;;;3.10;2.80;;;;;;;22.08;47.08;96117.50;5115205;28;20043;-62
2023/05/23 10:53:41;;;;;;;4.28;2.72;;;;;;;22.35;49.32;96118.59;5115118;28;20052;-62
2023/05/23 10:56:10;;;;;;;9.80;2.85;;;;;;;22.50;49.43;96126.97;5115101;28;20043;-63
2023/05/23 10:58:39;;;;;;;7.88;3.05;;;;;;;22.42;46.03;96127.69;5115132;28;20097;-66
2023/05/23 11:01:07;;;;;;;6.97;2.67;;;;;;;22.31;47.57;96126.00;5115007;28;20048;-64
2023/05/23 11:03:38;;;;;;;3.83;2.50;;;;;;;22.42;47.49;96127.69;5115088;28;20466;-61
2023/05/23 11:06:06;;;;;;;5.32;2.88;;;;;;;22.57;48.35;96136.09;5114870;28;20050;-63
2023/05/23 11:08:44;;;;;;;6.88;3.22;;;;;;;22.86;45.72;96121.00;5114965;28;20101;-67
2023/05/23 11:11:11;;;;;;;4.93;3.03;;;;;;;23.03;46.95;96129.22;5114821;28;20492;-65
2023/05/23 11:13:59;;;;;;;5.68;3.25;;;;;;;22.90;47.42;96127.72;5114732;28;20052;-63
2023/05/23 11:16:28;;;;;;;3.53;2.67;;;;;;;22.80;43.74;96124.25;5114810;28;20044;-61
2023/05/23 11:19:26;;;;;;;5.82;2.88;;;;;;;22.80;45.02;96117.13;5114756;28;20134;-65
2023/05/23 11:21:55;;;;;;;4.47;2.47;;;;;;;22.74;45.07;96119.50;5114640;28;20048;-66
2023/05/23 11:24:24;;;;;;;3.10;2.35;;;;;;;22.91;45.94;96126.72;5114503;28;20399;-65
2023/05/23 11:26:58;;;;;;;4.35;2.72;;;;;;;23.28;43.45;96122.38;5114469;28;20051;-64
2023/05/23 11:29:27;;;;;;;3.70;2.83;;;;;;;23.06;43.72;96123.59;5114491;28;20096;-64
2023/05/23 11:31:55;;;;;;;9.13;3.05;;;;;;;22.60;44.15;96137.63;5114524;28;20462;-66
2023/05/23 11:34:23;;;;;;;4.25;2.72;;;;;;;22.18;44.31;96138.78;5113631;28;20055;-63
2023/05/23 11:36:54;;;;;;;6.15;2.88;;;;;;;21.81;45.65;96142.97;5114332;28;20092;-65
2023/05/23 11:39:23;;;;;;;4.75;2.78;;;;;;;21.67;45.91;96128.25;5114160;28;20056;-66